Time;durP1;ratioP1;P1;durP2;ratioP2;P2;SDS_P1;SDS_P2;PMS_P1;PMS_P2;Temp;Humidity;BMP_temperature;BMP_pressure;BME280_temperature;BME280_humidity;BME280_pressure;Samples;Min_cycle;Max_cycle;Signal;HPM_P1;HPM_P2
2021/09/08 00:01:59;;;;;;;15.27;10.43;;;;;;;13.36;77.56;100494.44;5075731;28;20041;-49
2021/09/08 00:04:25;;;;;;;18.48;10.80;;;;;;;13.34;77.92;100485.72;5075977;28;20319;-49
2021/09/08 00:06:50;;;;;;;14.40;10.20;;;;;;;13.33;78.01;100484.00;5075716;28;20098;-49
2021/09/08 00:09:17;;;;;;;16.08;11.10;;;;;;;13.27;78.23;100485.03;5075914;28;20075;-49
2021/09/08 00:11:43;;;;;;;15.00;10.68;;;;;;;13.24;78.39;100487.72;5075631;28;20098;-49
2021/09/08 00:14:09;;;;;;;19.13;10.80;;;;;;;13.22;78.20;100478.09;5075805;28;20132;-49
2021/09/08 00:16:35;;;;;;;17.38;10.80;;;;;;;13.20;77.99;100480.78;5075527;28;20409;-49
2021/09/08 00:19:01;;;;;;;17.42;11.70;;;;;;;13.20;77.89;100479.94;5075498;28;20082;-49
2021/09/08 00:21:26;;;;;;;16.50;10.85;;;;;;;13.16;78.15;100480.88;5075525;28;20110;-49
2021/09/08 00:23:52;;;;;;;18.15;10.85;;;;;;;13.12;78.40;100481.88;5075758;28;20044;-49
2021/09/08 00:26:18;;;;;;;19.40;11.57;;;;;;;13.10;78.01;100485.41;5074913;28;20453;-49
2021/09/08 00:28:44;;;;;;;16.20;10.77;;;;;;;13.09;77.98;100485.44;5074619;28;20346;-49
2021/09/08 00:31:09;;;;;;;18.60;12.77;;;;;;;13.04;78.17;100485.56;5078092;28;20399;-49
2021/09/08 00:33:35;;;;;;;17.55;11.98;;;;;;;13.02;77.67;100482.09;5079369;28;20080;-49
2021/09/08 00:36:02;;;;;;;15.57;11.10;;;;;;;12.99;78.10;100483.94;5079412;28;20053;-49
2021/09/08 00:38:30;;;;;;;19.08;11.35;;;;;;;12.93;78.14;100489.34;5079276;28;20055;-49
2021/09/08 00:40:56;;;;;;;16.13;10.30;;;;;;;12.90;78.29;100481.53;5078840;28;20061;-49
2021/09/08 00:43:23;;;;;;;14.65;10.10;;;;;;;12.89;78.41;100485.91;5079370;28;20193;-49
2021/09/08 00:45:52;;;;;;;15.00;10.40;;;;;;;12.86;78.15;100478.97;5078940;28;20048;-49
2021/09/08 00:48:18;;;;;;;16.67;10.40;;;;;;;12.83;78.46;100483.44;5078943;28;20419;-49
2021/09/08 00:50:45;;;;;;;17.05;11.02;;;;;;;12.81;78.48;100488.75;5079195;28;20072;-49
2021/09/08 00:53:11;;;;;;;14.90;10.57;;;;;;;12.79;78.58;100482.66;5079002;28;20041;-49
2021/09/08 00:55:37;;;;;;;10.98;8.73;;;;;;;12.75;78.71;100483.63;5078012;28;20405;-49
2021/09/08 00:58:03;;;;;;;20.17;12.15;;;;;;;12.73;78.89;100485.41;5078233;28;20044;-49
2021/09/08 01:00:29;;;;;;;14.88;10.02;;;;;;;12.73;78.91;100488.03;5078654;28;20076;-49
2021/09/08 01:02:56;;;;;;;13.85;10.05;;;;;;;12.70;79.22;100488.09;5078937;28;20048;-49
2021/09/08 01:05:24;;;;;;;16.20;10.43;;;;;;;12.70;78.91;100484.63;5078922;28;20044;-49
2021/09/08 01:07:50;;;;;;;15.10;10.70;;;;;;;12.68;78.61;100489.94;5079116;28;20102;-49
2021/09/08 01:10:17;;;;;;;16.52;11.07;;;;;;;12.67;78.91;100489.94;5078842;28;20060;-49
2021/09/08 01:12:43;;;;;;;16.65;12.30;;;;;;;12.66;78.96;100485.59;5077601;28;20453;-49
2021/09/08 01:15:11;;;;;;;18.05;13.45;;;;;;;12.65;79.17;100492.63;5078730;28;20136;-49
2021/09/08 01:17:37;;;;;;;19.42;12.23;;;;;;;12.52;78.82;100473.63;5077835;28;20044;-49
2021/09/08 01:20:03;;;;;;;18.98;12.68;;;;;;;12.56;79.05;100491.06;5078389;28;20044;-49
2021/09/08 01:22:30;;;;;;;15.82;11.68;;;;;;;12.55;79.06;100484.09;5078346;28;20052;-49
2021/09/08 01:24:56;;;;;;;18.17;11.55;;;;;;;12.53;79.72;100485.00;5078331;28;20052;-49
2021/09/08 01:27:23;;;;;;;16.67;12.20;;;;;;;12.52;79.58;100486.78;5078239;28;20339;-49
2021/09/08 01:29:49;;;;;;;15.25;10.77;;;;;;;12.51;79.32;100482.44;5077289;28;20060;-49
2021/09/08 01:32:15;;;;;;;18.20;10.75;;;;;;;12.51;78.93;100482.44;5078361;28;20044;-49
2021/09/08 01:34:41;;;;;;;16.15;11.02;;;;;;;12.51;78.91;100474.56;5078338;28;20048;-49
2021/09/08 01:37:06;;;;;;;15.93;11.70;;;;;;;12.44;78.79;100464.19;5077216;28;20052;-49
2021/09/08 01:39:32;;;;;;;16.88;11.38;;;;;;;12.47;78.36;100472.88;5077377;28;20056;-49
2021/09/08 01:41:58;;;;;;;17.60;11.80;;;;;;;12.45;78.70;100479.06;5077369;28;20477;-49
2021/09/08 01:44:24;;;;;;;17.27;11.32;;;;;;;12.43;78.53;100476.47;5077859;28;20105;-49
2021/09/08 01:46:51;;;;;;;18.67;11.93;;;;;;;12.43;78.74;100480.88;5077795;28;20048;-49
2021/09/08 01:49:16;;;;;;;20.75;12.77;;;;;;;12.40;79.05;100484.41;5077274;28;20170;-49
2021/09/08 01:51:42;;;;;;;15.32;11.48;;;;;;;12.39;79.33;100469.56;5076903;28;20074;-49
2021/09/08 01:54:08;;;;;;;16.50;11.07;;;;;;;12.37;79.24;100477.47;5077871;28;20048;-49
2021/09/08 01:56:34;;;;;;;16.35;11.25;;;;;;;12.32;79.70;100479.34;5077685;28;20106;-49
2021/09/08 01:58:59;;;;;;;17.10;11.48;;;;;;;12.31;79.65;100481.97;5077580;28;20048;-49
2021/09/08 02:01:25;;;;;;;16.33;11.13;;;;;;;12.28;79.82;100488.16;5077835;28;20075;-49
2021/09/08 02:03:52;;;;;;;20.05;11.70;;;;;;;12.29;79.35;100486.41;5077761;28;20071;-49
2021/09/08 02:06:23;;;;;;;17.55;12.05;;;;;;;12.26;79.46;100486.47;5077747;28;20052;-49
2021/09/08 02:08:53;;;;;;;16.73;11.27;;;;;;;12.23;79.69;100483.91;5077492;28;20040;-49
2021/09/08 02:11:19;;;;;;;16.50;10.38;;;;;;;12.20;79.69;100487.47;5077322;28;20110;-49
2021/09/08 02:13:47;;;;;;;17.67;11.80;;;;;;;12.20;79.79;100484.00;5077464;28;20340;-49
2021/09/08 02:16:14;;;;;;;18.42;11.65;;;;;;;12.16;80.11;100485.81;5076659;28;20044;-49
2021/09/08 02:18:40;;;;;;;17.40;10.90;;;;;;;12.13;79.98;100481.47;5077492;28;20063;-49
2021/09/08 02:21:05;;;;;;;18.40;11.70;;;;;;;12.13;79.88;100480.63;5077729;28;20331;-49
2021/09/08 02:23:31;;;;;;;17.98;11.75;;;;;;;12.11;79.94;100485.03;5077480;28;20072;-49
2021/09/08 02:25:57;;;;;;;18.33;11.93;;;;;;;12.10;79.52;100478.91;5077299;28;20052;-49
2021/09/08 02:28:23;;;;;;;17.17;11.02;;;;;;;12.10;79.34;100478.06;5077012;28;20052;-49
2021/09/08 02:30:49;;;;;;;15.20;10.38;;;;;;;12.07;79.52;100475.50;5077247;28;20052;-49
2021/09/08 02:33:16;;;;;;;19.45;11.05;;;;;;;12.07;79.35;100481.59;5077157;28;20316;-49
2021/09/08 02:35:41;;;;;;;15.32;10.13;;;;;;;12.05;79.35;100475.50;5076866;28;20409;-49
2021/09/08 02:38:08;;;;;;;15.55;10.40;;;;;;;12.03;79.58;100482.56;5076853;28;20048;-49
2021/09/08 02:40:33;;;;;;;15.35;10.18;;;;;;;12.01;79.52;100481.72;5076571;28;20049;-49
2021/09/08 02:42:59;;;;;;;14.82;9.63;;;;;;;11.99;79.57;100477.41;5076799;28;20059;-49
2021/09/08 02:45:25;;;;;;;14.00;10.38;;;;;;;11.98;79.41;100479.16;5077023;28;20052;-49
2021/09/08 02:47:50;;;;;;;14.98;9.88;;;;;;;11.97;79.57;100480.06;5076590;28;20408;-49
2021/09/08 02:50:16;;;;;;;16.30;10.68;;;;;;;11.95;79.43;100473.97;5076634;28;20090;-49
2021/09/08 02:52:42;;;;;;;15.13;10.52;;;;;;;11.88;79.61;100467.13;5075986;28;20055;-49
2021/09/08 02:55:08;;;;;;;14.38;9.45;;;;;;;11.90;79.45;100474.06;5076820;28;20464;-49
2021/09/08 02:57:34;;;;;;;16.75;10.52;;;;;;;11.88;78.81;100475.00;5076537;28;20102;-49
2021/09/08 03:00:00;;;;;;;15.15;10.27;;;;;;;11.85;78.92;100475.06;5076467;28;20123;-49
2021/09/08 03:02:25;;;;;;;13.32;9.15;;;;;;;11.83;79.09;100471.56;5076630;28;20426;-49
2021/09/08 03:04:51;;;;;;;14.45;9.40;;;;;;;11.80;79.12;100472.50;5076438;28;20032;-49
2021/09/08 03:07:17;;;;;;;14.43;10.18;;;;;;;11.78;79.10;100468.16;5076314;28;20048;-49
2021/09/08 03:09:43;;;;;;;16.52;10.50;;;;;;;11.76;78.99;100475.19;5076301;28;20036;-49
2021/09/08 03:12:08;;;;;;;15.25;9.82;;;;;;;11.74;78.73;100466.50;5076135;28;20052;-49
2021/09/08 03:14:34;;;;;;;17.35;9.68;;;;;;;11.73;79.08;100472.63;5076234;28;20060;-49
2021/09/08 03:17:00;;;;;;;15.80;10.45;;;;;;;11.70;78.90;100470.94;5076474;28;20056;-49
2021/09/08 03:19:26;;;;;;;15.95;10.20;;;;;;;11.67;79.26;100479.75;5076468;28;20040;-49
2021/09/08 03:21:51;;;;;;;14.90;9.73;;;;;;;11.66;79.69;100469.25;5076118;28;20044;-49
2021/09/08 03:24:17;;;;;;;16.45;10.07;;;;;;;11.66;79.83;100474.50;5075769;28;20059;-49
2021/09/08 03:26:43;;;;;;;17.48;11.13;;;;;;;11.63;79.88;100464.97;5076039;28;20045;-49
2021/09/08 03:29:09;;;;;;;14.32;9.50;;;;;;;11.61;79.49;100461.50;5076052;28;20055;-49
2021/09/08 03:31:34;;;;;;;16.65;10.13;;;;;;;11.62;79.80;100462.34;5075457;28;20498;-49
2021/09/08 03:34:00;;;;;;;17.85;9.98;;;;;;;11.59;79.66;100470.28;5076158;28;20426;-49
2021/09/08 03:36:26;;;;;;;14.90;9.82;;;;;;;11.55;79.87;100469.47;5075196;28;20327;-49
2021/09/08 03:38:52;;;;;;;15.02;9.88;;;;;;;11.54;79.65;100466.88;5075962;28;20055;-49
2021/09/08 03:41:17;;;;;;;14.93;10.18;;;;;;;11.52;79.06;100466.03;5075949;28;20071;-49
2021/09/08 03:43:43;;;;;;;14.27;10.25;;;;;;;11.49;79.45;100456.47;5075888;28;20055;-49
2021/09/08 03:46:09;;;;;;;15.48;10.13;;;;;;;11.47;79.08;100466.09;5075935;28;20040;-49
2021/09/08 03:48:35;;;;;;;16.35;10.52;;;;;;;11.44;79.35;100461.81;5059119;28;20430;-49
2021/09/08 03:51:01;;;;;;;17.13;11.07;;;;;;;11.43;79.34;100464.44;5075020;28;20121;-49
2021/09/08 03:53:26;;;;;;;13.27;9.10;;;;;;;11.40;79.32;100460.09;5075988;28;20049;-49
2021/09/08 03:55:52;;;;;;;16.30;10.70;;;;;;;11.36;79.31;100463.69;5075719;28;20458;-49
2021/09/08 03:58:18;;;;;;;16.52;10.43;;;;;;;11.34;79.73;100468.13;5074834;28;20056;-49
2021/09/08 04:00:44;;;;;;;18.02;9.95;;;;;;;11.33;79.94;100466.38;5075703;28;20068;-49
2021/09/08 04:03:10;;;;;;;15.95;8.95;;;;;;;11.34;80.21;100475.09;5076016;28;20090;-49
2021/09/08 04:05:36;;;;;;;15.40;9.70;;;;;;;11.31;79.91;100469.91;5078159;28;20131;-49
2021/09/08 04:08:01;;;;;;;17.10;11.90;;;;;;;11.31;80.06;100473.41;5079737;28;20113;-49
2021/09/08 04:10:31;;;;;;;14.80;10.00;;;;;;;11.31;80.33;100476.03;5079985;28;20044;-49
2021/09/08 04:12:57;;;;;;;14.00;9.50;;;;;;;11.31;80.36;100477.75;5079873;28;20106;-49
2021/09/08 04:15:23;;;;;;;15.35;9.70;;;;;;;11.31;80.69;100472.53;5080176;28;20469;-49
2021/09/08 04:17:48;;;;;;;19.65;10.82;;;;;;;11.29;80.36;100476.94;5079511;28;20343;-49
2021/09/08 04:20:14;;;;;;;14.52;10.20;;;;;;;11.30;80.23;100478.66;5078909;28;20114;-49
2021/09/08 04:22:40;;;;;;;12.35;9.77;;;;;;;11.29;79.92;100477.81;5079727;28;20158;-49
2021/09/08 04:25:06;;;;;;;15.55;10.10;;;;;;;11.28;80.34;100480.44;5079706;28;20052;-49
2021/09/08 04:27:32;;;;;;;13.70;9.52;;;;;;;11.23;80.77;100473.53;5078744;28;20101;-49
2021/09/08 04:29:58;;;;;;;16.55;10.45;;;;;;;11.27;80.73;100482.19;5079608;28;20052;-49
2021/09/08 04:32:23;;;;;;;19.08;11.35;;;;;;;11.29;80.48;100485.69;5079496;28;20068;-49
2021/09/08 04:34:49;;;;;;;18.25;10.85;;;;;;;11.31;80.65;100472.53;5079227;28;20041;-49
2021/09/08 04:37:15;;;;;;;20.50;13.38;;;;;;;11.34;80.52;100475.09;5079185;28;20113;-49
2021/09/08 04:39:43;;;;;;;21.35;10.85;;;;;;;11.35;80.46;100485.56;5079138;28;20102;-49
2021/09/08 04:42:09;;;;;;;17.98;11.50;;;;;;;11.36;80.79;100481.19;5079196;28;20061;-49
2021/09/08 04:44:35;;;;;;;22.13;13.90;;;;;;;11.36;80.48;100471.56;5078143;28;20114;-49
2021/09/08 04:47:00;;;;;;;23.88;14.95;;;;;;;11.42;80.74;100481.94;5079444;28;20040;-49
2021/09/08 04:49:26;;;;;;;24.98;15.10;;;;;;;11.45;80.92;100484.50;5079194;28;20055;-49
2021/09/08 04:51:52;;;;;;;20.55;14.65;;;;;;;11.49;81.55;100485.31;5079150;28;20122;-49
2021/09/08 04:54:18;;;;;;;27.48;17.13;;;;;;;11.54;81.58;100485.25;5078723;28;20447;-49
2021/09/08 04:56:44;;;;;;;25.95;16.70;;;;;;;11.59;81.60;100478.16;5079085;28;20159;-49
2021/09/08 04:59:10;;;;;;;29.42;20.48;;;;;;;11.65;81.72;100476.28;5078497;28;20469;-49
2021/09/08 05:01:35;;;;;;;25.52;18.77;;;;;;;11.61;81.76;100460.63;5079010;28;20090;-49
2021/09/08 05:04:01;;;;;;;24.55;18.10;;;;;;;11.77;81.99;100469.94;5078942;28;20055;-49
2021/09/08 05:06:27;;;;;;;30.35;21.10;;;;;;;11.83;82.11;100476.78;5078953;28;20048;-49
2021/09/08 05:08:53;;;;;;;29.65;17.00;;;;;;;11.90;82.53;100474.06;5078830;28;20401;-49
2021/09/08 05:11:19;;;;;;;27.48;18.65;;;;;;;11.98;82.36;100473.91;5077692;28;20068;-49
2021/09/08 05:13:44;;;;;;;26.58;18.17;;;;;;;12.06;82.68;100477.25;5078728;28;20439;-49
2021/09/08 05:16:10;;;;;;;24.17;16.50;;;;;;;12.16;83.01;100475.31;5077590;28;20056;-49
2021/09/08 05:18:36;;;;;;;26.88;17.65;;;;;;;12.27;83.10;100475.06;5078135;28;20040;-49
2021/09/08 05:21:02;;;;;;;23.88;16.90;;;;;;;12.52;83.63;100475.41;5078668;28;20052;-49
2021/09/08 05:23:28;;;;;;;24.13;16.23;;;;;;;12.91;83.62;100478.88;5078571;28;20075;-49
2021/09/08 05:25:53;;;;;;;26.77;17.33;;;;;;;13.35;83.34;100476.06;5077444;28;20094;-49
2021/09/08 05:28:20;;;;;;;26.05;16.55;;;;;;;13.75;83.33;100479.38;5078510;28;20048;-49
2021/09/08 05:30:46;;;;;;;30.40;18.35;;;;;;;14.16;83.21;100471.19;5078438;28;20044;-49
2021/09/08 05:33:12;;;;;;;24.33;16.33;;;;;;;14.55;82.49;100474.44;5077500;28;20055;-49
2021/09/08 05:35:38;;;;;;;32.53;18.70;;;;;;;14.92;81.35;100470.66;5078372;28;20056;-49
2021/09/08 05:38:03;;;;;;;26.13;17.42;;;;;;;15.24;81.28;100472.22;5078330;28;20358;-49
2021/09/08 05:40:30;;;;;;;36.25;23.30;;;;;;;15.61;80.32;100481.50;5077836;28;20117;-50
2021/09/08 05:42:55;;;;;;;32.30;23.33;;;;;;;15.99;79.54;100488.09;5076880;28;20045;-49
2021/09/08 05:45:21;;;;;;;32.03;22.45;;;;;;;16.28;77.98;100472.91;5076435;28;20044;-50
2021/09/08 05:47:47;;;;;;;28.65;20.80;;;;;;;16.64;77.20;100483.88;5075885;28;20401;-49
2021/09/08 05:50:13;;;;;;;32.13;18.95;;;;;;;16.96;76.74;100479.94;5077239;28;20049;-49
2021/09/08 05:52:38;;;;;;;29.25;19.58;;;;;;;17.23;75.85;100485.03;5077382;28;20040;-49
2021/09/08 05:55:05;;;;;;;25.55;17.85;;;;;;;17.52;75.21;100491.75;5077742;28;20144;-49
2021/09/08 05:57:30;;;;;;;28.63;18.35;;;;;;;17.79;74.61;100488.84;5076712;28;20048;-50
2021/09/08 05:59:56;;;;;;;23.45;16.85;;;;;;;18.08;73.88;100479.59;5077880;28;20059;-50
2021/09/08 06:02:22;;;;;;;24.67;15.57;;;;;;;18.21;72.67;100481.63;5076696;28;20439;-50
2021/09/08 06:04:48;;;;;;;23.40;14.38;;;;;;;18.25;71.79;100477.03;5077838;28;20113;-50
2021/09/08 06:07:13;;;;;;;23.95;16.13;;;;;;;18.32;72.13;100481.09;5077728;28;20045;-50
2021/09/08 06:09:39;;;;;;;23.50;14.05;;;;;;;18.54;72.14;100482.75;5076513;28;20075;-50
2021/09/08 06:12:05;;;;;;;24.95;14.27;;;;;;;18.70;72.06;100483.75;5077377;28;20040;-50
2021/09/08 06:14:31;;;;;;;25.00;15.32;;;;;;;18.96;71.93;100477.22;5077513;28;20127;-50
2021/09/08 06:16:57;;;;;;;20.63;13.60;;;;;;;19.16;70.66;100473.56;5077543;28;20094;-50
2021/09/08 06:19:22;;;;;;;24.02;15.68;;;;;;;19.31;70.26;100474.59;5077256;28;20040;-50
2021/09/08 06:21:48;;;;;;;29.08;15.85;;;;;;;19.46;69.53;100476.44;5043424;28;20066;-50
2021/09/08 06:24:14;;;;;;;24.42;16.23;;;;;;;19.69;69.33;100471.78;5077458;28;20486;-50
2021/09/08 06:26:41;;;;;;;25.83;15.93;;;;;;;19.99;68.70;100472.81;5077120;28;20122;-50
2021/09/08 06:29:06;;;;;;;23.85;15.18;;;;;;;20.30;68.00;100472.00;5077304;28;20048;-50
2021/09/08 06:31:32;;;;;;;26.13;18.42;;;;;;;20.51;66.79;100459.38;5076198;28;20360;-50
2021/09/08 06:33:58;;;;;;;32.70;19.90;;;;;;;20.67;65.77;100461.13;5076908;28;20045;-50
2021/09/08 06:36:24;;;;;;;34.65;18.90;;;;;;;20.95;66.32;100463.09;5076927;28;20040;-50
2021/09/08 06:38:50;;;;;;;33.42;20.30;;;;;;;21.07;64.75;100469.53;5077420;28;20045;-50
2021/09/08 06:41:16;;;;;;;31.00;21.75;;;;;;;21.14;64.66;100468.22;5075978;28;20091;-50
2021/09/08 06:43:42;;;;;;;35.13;22.38;;;;;;;21.31;64.46;100475.19;5076969;28;20045;-50
2021/09/08 06:46:08;;;;;;;35.88;20.67;;;;;;;21.49;63.70;100471.50;5076965;28;20606;-50
2021/09/08 06:48:33;;;;;;;27.40;18.73;;;;;;;21.56;63.04;100479.97;5076705;28;20036;-50
2021/09/08 06:50:59;;;;;;;28.40;20.58;;;;;;;21.66;62.07;100481.97;5076892;28;20126;-50
2021/09/08 06:53:25;;;;;;;34.45;21.75;;;;;;;21.78;62.36;100480.38;5075872;28;20158;-50
2021/09/08 06:55:51;;;;;;;26.48;18.55;;;;;;;21.82;62.61;100476.56;5076797;28;20434;-50
2021/09/08 06:58:17;;;;;;;25.17;16.02;;;;;;;21.98;63.20;100481.81;5076777;28;20397;-50
2021/09/08 07:00:42;;;;;;;27.40;17.75;;;;;;;22.15;61.46;100491.44;5076741;28;20053;-50
2021/09/08 07:03:08;;;;;;;23.80;15.20;;;;;;;22.16;61.34;100480.72;5075588;28;20358;-50
2021/09/08 07:05:34;;;;;;;28.60;15.43;;;;;;;22.35;61.63;100484.88;5076966;28;20051;-50
2021/09/08 07:08:01;;;;;;;22.75;15.95;;;;;;;22.52;61.77;100481.13;5076377;28;20401;-50
2021/09/08 07:10:27;;;;;;;18.35;13.07;;;;;;;22.57;61.75;100471.03;5076542;28;20048;-50
2021/09/08 07:12:53;;;;;;;22.70;14.05;;;;;;;22.64;61.86;100485.69;5076771;28;20044;-50
2021/09/08 07:15:19;;;;;;;25.88;17.42;;;;;;;22.59;59.56;100482.47;5076194;28;20052;-50
2021/09/08 07:17:45;;;;;;;20.00;13.93;;;;;;;22.73;60.93;100482.41;5076171;28;20056;-50
2021/09/08 07:20:10;;;;;;;18.38;12.75;;;;;;;22.74;60.90;100473.44;5076422;28;20076;-50
2021/09/08 07:22:36;;;;;;;20.23;13.60;;;;;;;22.93;60.56;100481.16;5076949;28;20040;-50
2021/09/08 07:25:02;;;;;;;18.55;14.25;;;;;;;22.91;59.63;100476.81;5076380;28;20103;-50
2021/09/08 07:27:28;;;;;;;17.58;13.48;;;;;;;22.80;59.33;100477.53;5076024;28;20056;-50
2021/09/08 07:29:54;;;;;;;21.52;13.35;;;;;;;22.94;60.46;100490.84;5076127;28;20055;-50
2021/09/08 07:32:20;;;;;;;29.30;17.30;;;;;;;23.01;58.06;100480.63;5076212;28;20052;-50
2021/09/08 07:34:46;;;;;;;18.80;13.18;;;;;;;23.01;59.11;100484.19;5075960;28;20516;-50
2021/09/08 07:37:11;;;;;;;19.77;14.02;;;;;;;23.13;59.70;100485.16;5075153;28;20166;-50
2021/09/08 07:39:37;;;;;;;18.42;13.25;;;;;;;23.33;58.95;100478.47;5075566;28;20056;-50
2021/09/08 07:42:03;;;;;;;24.77;16.13;;;;;;;23.28;57.75;100480.63;5075902;28;20052;-50
2021/09/08 07:44:29;;;;;;;20.17;12.93;;;;;;;23.42;58.83;100487.69;5075878;28;20327;-51
2021/09/08 07:46:55;;;;;;;20.35;13.55;;;;;;;23.58;59.75;100477.66;5076109;28;20072;-50
2021/09/08 07:49:20;;;;;;;16.05;12.50;;;;;;;23.75;59.08;100484.56;5076148;28;20347;-50
2021/09/08 07:51:46;;;;;;;17.13;13.77;;;;;;;23.90;58.22;100491.50;5075750;28;20056;-50
2021/09/08 07:54:12;;;;;;;19.08;13.63;;;;;;;23.96;57.44;100479.53;5075999;28;20049;-50
2021/09/08 07:56:38;;;;;;;18.20;13.18;;;;;;;24.12;57.16;100482.84;5075759;28;20057;-50
2021/09/08 07:59:03;;;;;;;19.98;13.95;;;;;;;24.12;56.74;100482.84;5076043;28;20055;-50
2021/09/08 08:01:32;;;;;;;23.35;13.88;;;;;;;24.11;55.40;100480.25;5076005;28;20045;-50
2021/09/08 08:03:58;;;;;;;18.20;13.30;;;;;;;24.22;54.98;100477.69;5075955;28;20044;-50
2021/09/08 08:06:25;;;;;;;25.85;13.52;;;;;;;24.34;55.09;100482.19;5075991;28;20048;-50
2021/09/08 08:08:50;;;;;;;20.08;12.63;;;;;;;24.40;54.87;100484.38;5075949;28;20075;-50
2021/09/08 08:11:16;;;;;;;18.90;13.82;;;;;;;24.44;54.55;100471.69;5075614;28;20101;-50
2021/09/08 08:13:47;;;;;;;18.67;11.55;;;;;;;24.61;54.60;100478.50;5074657;28;20045;-50
2021/09/08 08:16:13;;;;;;;21.38;11.43;;;;;;;24.67;52.81;100476.22;5075616;28;20048;-50
2021/09/08 08:18:39;;;;;;;16.52;11.65;;;;;;;24.77;52.54;100478.22;5075512;28;20361;-50
2021/09/08 08:21:05;;;;;;;16.83;10.85;;;;;;;24.88;53.31;100476.44;5074998;28;20045;-50
2021/09/08 08:23:31;;;;;;;15.43;10.75;;;;;;;24.98;52.01;100473.09;5076614;28;20044;-50
2021/09/08 08:25:56;;;;;;;13.27;10.30;;;;;;;24.99;50.08;100477.47;5075787;28;20048;-50
2021/09/08 08:28:22;;;;;;;14.18;10.98;;;;;;;25.10;51.21;100470.34;5074522;28;20053;-50
2021/09/08 08:30:48;;;;;;;12.07;9.15;;;;;;;25.17;50.98;100476.13;5075498;28;20071;-50
2021/09/08 08:33:14;;;;;;;15.60;8.88;;;;;;;25.21;49.94;100471.38;5073748;28;20350;-50
2021/09/08 08:35:40;;;;;;;11.43;8.35;;;;;;;25.22;48.93;100468.59;5072568;28;20366;-50
2021/09/08 08:38:06;;;;;;;14.88;9.23;;;;;;;25.30;49.91;100473.38;5073605;28;20068;-50
2021/09/08 08:40:32;;;;;;;14.52;9.85;;;;;;;25.35;50.09;100469.38;5073617;28;20041;-50
2021/09/08 08:42:59;;;;;;;13.75;8.75;;;;;;;25.42;49.82;100467.06;5074278;28;20359;-50
2021/09/08 08:45:24;;;;;;;11.88;8.82;;;;;;;25.47;48.19;100470.25;5074330;28;20116;-50
2021/09/08 08:47:50;;;;;;;12.18;9.60;;;;;;;25.49;47.82;100470.13;5075353;28;20069;-50
2021/09/08 08:50:16;;;;;;;16.50;10.40;;;;;;;25.47;48.11;100467.56;5074736;28;20059;-50
2021/09/08 08:52:42;;;;;;;13.35;10.38;;;;;;;25.42;47.90;100461.72;5060989;28;20044;-50
2021/09/08 08:55:08;;;;;;;14.10;9.07;;;;;;;25.57;48.43;100470.38;5061729;28;20053;-50
2021/09/08 08:57:35;;;;;;;17.48;10.02;;;;;;;25.60;48.54;100462.09;5079124;28;20048;-50
2021/09/08 09:00:00;;;;;;;12.48;9.73;;;;;;;25.62;47.92;100455.66;5079051;28;20121;-50
2021/09/08 09:02:27;;;;;;;14.05;10.00;;;;;;;25.74;48.13;100469.94;5078811;28;20055;-50
2021/09/08 09:04:56;;;;;;;15.82;9.55;;;;;;;25.74;48.47;100461.91;5045117;28;20044;-50
2021/09/08 09:07:28;;;;;;;15.60;9.75;;;;;;;25.84;48.54;100462.91;5077797;28;20052;-50
2021/09/08 09:09:59;;;;;;;13.20;9.85;;;;;;;25.92;48.76;100462.31;5078692;28;20484;-50
2021/09/08 09:12:27;;;;;;;11.98;9.32;;;;;;;25.97;47.74;100468.16;5078758;28;20048;-50
2021/09/08 09:14:58;;;;;;;11.18;9.75;;;;;;;26.04;48.12;100463.16;5078785;28;20128;-50
2021/09/08 09:17:25;;;;;;;10.45;8.02;;;;;;;26.13;49.04;100469.63;5078884;28;20430;-50
2021/09/08 09:19:51;;;;;;;11.73;9.38;;;;;;;26.23;48.86;100463.41;5078646;28;20037;-50
2021/09/08 09:22:18;;;;;;;13.93;9.55;;;;;;;26.36;48.54;100460.59;5077809;28;20059;-49
2021/09/08 09:24:45;;;;;;;11.50;9.68;;;;;;;26.41;47.39;100470.94;5094520;28;20051;-50
2021/09/08 09:27:11;;;;;;;15.05;10.35;;;;;;;26.53;47.40;100456.56;5078562;28;20060;-50
2021/09/08 09:29:44;;;;;;;12.82;9.65;;;;;;;26.61;45.44;100456.78;5078215;28;20049;-50
2021/09/08 09:32:11;;;;;;;12.02;9.18;;;;;;;26.57;46.06;100456.16;5078213;28;20048;-50
2021/09/08 09:34:38;;;;;;;10.52;8.30;;;;;;;26.68;46.50;100457.13;5094070;28;20044;-50
2021/09/08 09:37:04;;;;;;;13.95;9.18;;;;;;;26.75;45.67;100452.97;5077568;28;20040;-50
2021/09/08 09:39:34;;;;;;;11.80;8.60;;;;;;;26.85;45.64;100459.28;5094022;28;20055;-49
2021/09/08 09:42:06;;;;;;;13.85;10.30;;;;;;;26.91;45.68;100455.22;5077936;28;20113;-51
2021/09/08 09:44:33;;;;;;;12.50;8.75;;;;;;;26.95;45.59;100444.09;5078267;28;20048;-50
2021/09/08 09:47:00;;;;;;;12.35;9.35;;;;;;;27.10;45.35;100443.78;5077950;28;20105;-50
2021/09/08 09:49:26;;;;;;;13.77;8.93;;;;;;;27.11;45.26;100440.97;5078195;28;20052;-50
2021/09/08 09:51:56;;;;;;;11.15;9.10;;;;;;;27.24;45.13;100443.53;5076936;28;20048;-50
2021/09/08 09:54:22;;;;;;;11.35;9.10;;;;;;;27.33;45.69;100431.97;5077120;28;20091;-50
2021/09/08 09:56:48;;;;;;;11.93;9.18;;;;;;;27.37;44.90;100444.19;5077981;28;20063;-51
2021/09/08 09:59:16;;;;;;;14.13;9.80;;;;;;;27.39;45.42;100430.59;5077975;28;20049;-51
2021/09/08 10:01:42;;;;;;;15.00;8.93;;;;;;;27.52;45.81;100428.53;5077571;28;20045;-51
2021/09/08 10:04:08;;;;;;;13.13;9.55;;;;;;;27.69;45.46;100433.34;5093529;28;20351;-51
2021/09/08 10:06:35;;;;;;;9.98;7.97;;;;;;;27.76;45.02;100414.81;5093315;28;20059;-50
2021/09/08 10:09:01;;;;;;;11.13;8.65;;;;;;;27.90;43.91;100424.38;5077831;28;20124;-50
2021/09/08 10:11:32;;;;;;;13.25;8.63;;;;;;;27.99;44.75;100425.44;5077771;28;20423;-50
2021/09/08 10:14:21;;;;;;;18.85;9.90;;;;;;;28.08;42.89;100419.19;5076841;28;20060;-50
2021/09/08 10:16:47;;;;;;;10.23;7.85;;;;;;;28.06;42.18;100413.13;5076816;28;20058;-51
2021/09/08 10:19:26;;;;;;;9.75;7.38;;;;;;;28.16;42.11;100405.91;5077605;28;20135;-50
2021/09/08 10:21:53;;;;;;;9.75;6.78;;;;;;;28.19;42.30;100414.56;5077367;28;20047;-51
2021/09/08 10:24:20;;;;;;;8.57;7.10;;;;;;;28.25;42.43;100406.94;5077502;28;20110;-50
2021/09/08 10:26:47;;;;;;;8.40;7.00;;;;;;;28.32;41.46;100417.03;5093613;28;20045;-51
2021/09/08 10:29:12;;;;;;;10.30;6.40;;;;;;;28.37;41.71;100409.38;5077157;28;20040;-50
2021/09/08 10:31:41;;;;;;;9.35;7.30;;;;;;;28.42;40.68;100409.84;5076747;28;20075;-50
2021/09/08 10:34:07;;;;;;;9.65;7.03;;;;;;;28.46;39.87;100404.19;5076964;28;20048;-50
2021/09/08 10:36:34;;;;;;;6.90;6.15;;;;;;;28.45;39.92;100407.88;5077239;28;20040;-51
2021/09/08 10:39:10;;;;;;;8.43;6.30;;;;;;;28.36;39.73;100404.13;5078014;28;20052;-50
2021/09/08 10:41:43;;;;;;;10.95;6.47;;;;;;;28.46;39.92;100396.94;5076781;28;20052;-51
2021/09/08 10:44:10;;;;;;;10.70;7.55;;;;;;;28.51;39.67;100392.00;5092230;28;20049;-50
2021/09/08 10:46:56;;;;;;;8.57;6.30;;;;;;;28.62;40.29;100401.78;5077056;28;20049;-50
2021/09/08 10:49:36;;;;;;;7.78;6.40;;;;;;;28.67;37.57;100385.22;5077052;28;20051;-50
2021/09/08 10:52:09;;;;;;;8.25;6.38;;;;;;;28.70;39.61;100388.47;5077247;28;20063;-50
2021/09/08 10:55:14;;;;;;;8.57;7.20;;;;;;;28.59;37.45;100385.91;5076799;28;20056;-50
2021/09/08 10:57:49;;;;;;;9.60;7.32;;;;;;;28.64;37.92;100378.25;5065510;28;20045;-50
2021/09/08 11:00:36;;;;;;;8.70;6.43;;;;;;;28.74;38.05;100379.09;5075682;28;20044;-51
2021/09/08 11:03:03;;;;;;;7.25;5.72;;;;;;;28.78;37.14;100376.97;5076455;28;20079;-51
2021/09/08 11:05:29;;;;;;;6.90;6.20;;;;;;;28.82;38.64;100373.84;5076681;28;20048;-51
2021/09/08 11:07:55;;;;;;;7.43;6.40;;;;;;;28.89;37.92;100368.72;5076438;28;20071;-51
2021/09/08 11:10:31;;;;;;;12.70;6.32;;;;;;;28.94;38.34;100369.16;5076409;28;20343;-50